Time;durP1;ratioP1;P1;durP2;ratioP2;P2;SDS_P1;SDS_P2;PMS_P1;PMS_P2;Temp;Humidity;BMP_temperature;BMP_pressure;BME280_temperature;BME280_humidity;BME280_pressure;Samples;Min_cycle;Max_cycle;Signal;HPM_P1;HPM_P2
2023/08/02 00:00:58;;;;;;;4.00;3.60;;;;;;;18.46;86.15;99184.70;104184;267;39380;-76
2023/08/02 00:03:39;;;;;;;;;;;;;;;18.44;86.26;99188.20;104164;274;38505;-76
2023/08/02 00:06:13;;;;;;;5.40;4.00;;;;;;;18.42;86.54;99190.56;104054;274;38514;-76
2023/08/02 00:08:50;;;;;;;4.40;3.60;;;;;;;18.42;86.64;99195.45;104188;274;38389;-76
2023/08/02 00:11:25;;;;;;;7.00;4.00;;;;;;;18.43;86.62;99197.13;104210;274;40121;-74
2023/08/02 00:14:08;;;;;;;6.80;4.30;;;;;;;18.42;86.56;99196.17;104214;274;38956;-74
2023/08/02 00:16:42;;;;;;;4.80;3.70;;;;;;;18.40;86.78;99197.75;104142;274;174936;-75
2023/08/02 00:19:16;;;;;;;3.90;3.50;;;;;;;18.41;86.66;99196.28;104173;274;38502;-77
2023/08/02 00:21:50;;;;;;;4.40;3.70;;;;;;;18.40;86.77;99196.36;104159;274;38723;-77
2023/08/02 00:24:28;;;;;;;4.20;3.70;;;;;;;18.35;86.49;99191.87;104148;274;38402;-77
2023/08/02 00:27:04;;;;;;;5.10;3.60;;;;;;;18.32;86.74;99190.89;104123;274;38456;-77
2023/08/02 00:29:42;;;;;;;4.70;3.70;;;;;;;18.27;86.73;99195.59;104144;274;38930;-77
2023/08/02 00:32:18;;;;;;;5.50;4.50;;;;;;;18.26;87.03;99196.38;104164;274;38365;-75
2023/08/02 00:34:54;;;;;;;4.60;3.70;;;;;;;18.25;86.96;99188.87;104160;274;38582;-75
2023/08/02 00:37:32;;;;;;;5.20;3.50;;;;;;;18.25;87.09;99194.02;104165;274;38470;-77
2023/08/02 00:40:08;;;;;;;4.20;3.50;;;;;;;18.24;87.16;99196.16;104146;274;38553;-75
2023/08/02 00:42:42;;;;;;;6.70;4.10;;;;;;;18.25;87.14;99204.39;104148;274;38742;-75
2023/08/02 00:45:17;;;;;;;5.00;3.80;;;;;;;18.25;87.17;99214.45;103908;274;38530;-77
2023/08/02 00:47:53;;;;;;;4.70;3.90;;;;;;;18.26;87.18;99211.33;104140;274;39463;-75
2023/08/02 00:50:31;;;;;;;4.10;3.70;;;;;;;18.23;87.12;99208.98;104169;274;38202;-77
2023/08/02 00:53:08;;;;;;;4.50;3.70;;;;;;;18.19;87.23;99207.94;103996;276;38292;-77
2023/08/02 00:55:43;;;;;;;6.20;4.00;;;;;;;18.13;87.12;99207.39;104193;274;38247;-75
2023/08/02 00:58:21;;;;;;;5.40;3.50;;;;;;;18.12;87.34;99204.52;104057;274;174960;-75
2023/08/02 01:00:59;;;;;;;4.70;3.70;;;;;;;18.08;87.43;99201.48;104176;274;38451;-75
2023/08/02 01:03:37;;;;;;;5.50;4.10;;;;;;;18.08;87.41;99204.34;104191;274;38678;-76
2023/08/02 01:06:20;;;;;;;4.70;4.00;;;;;;;18.06;87.51;99210.82;104220;274;39680;-76
2023/08/02 01:09:02;;;;;;;4.80;3.70;;;;;;;18.05;87.49;99215.14;104197;274;39398;-77
2023/08/02 01:11:44;;;;;;;4.90;3.70;;;;;;;18.04;87.76;99210.48;104184;274;38487;-76
2023/08/02 01:14:21;;;;;;;4.30;3.70;;;;;;;18.02;87.57;99215.27;104049;276;38266;-77
2023/08/02 01:16:56;;;;;;;4.80;4.00;;;;;;;18.01;87.67;99222.92;104201;274;38419;-77
2023/08/02 01:19:33;;;;;;;5.00;3.70;;;;;;;18.01;87.63;99227.16;103566;263;899015;-77
2023/08/02 01:22:13;;;;;;;4.50;3.90;;;;;;;18.01;87.83;99233.09;104174;274;38399;-75
2023/08/02 01:24:47;;;;;;;4.10;3.70;;;;;;;18.01;87.69;99234.77;104031;274;38707;-76
2023/08/02 01:27:25;;;;;;;6.30;3.90;;;;;;;17.99;87.68;99236.55;104135;274;38504;-77
2023/08/02 01:29:59;;;;;;;4.40;3.80;;;;;;;17.96;87.69;99237.81;104067;275;39442;-75
2023/08/02 01:32:34;;;;;;;4.60;3.70;;;;;;;17.93;87.67;99232.81;104000;276;39588;-76
2023/08/02 01:35:10;;;;;;;4.60;3.60;;;;;;;17.87;87.46;99226.40;104186;274;38287;-76
2023/08/02 01:37:44;;;;;;;5.50;3.90;;;;;;;17.84;87.84;99214.89;104184;274;38824;-76
2023/08/02 01:40:23;;;;;;;5.40;3.90;;;;;;;17.83;87.89;99213.94;104202;274;39581;-75
2023/08/02 01:42:56;;;;;;;;;;;;;;;17.80;87.97;99216.77;104166;274;38568;-75
2023/08/02 01:45:30;;;;;;;4.50;3.90;;;;;;;17.79;88.33;99218.49;104169;274;38298;-75
2023/08/02 01:48:06;;;;;;;6.50;3.80;;;;;;;17.81;88.41;99220.98;104043;276;39652;-75
2023/08/02 01:50:40;;;;;;;5.10;3.90;;;;;;;17.81;88.34;99220.44;104186;274;39480;-75
2023/08/02 01:53:18;;;;;;;5.20;4.00;;;;;;;17.80;88.40;99227.40;104165;274;38686;-76
2023/08/02 01:55:58;;;;;;;5.30;3.90;;;;;;;17.78;88.45;99232.63;104181;274;38391;-76
2023/08/02 01:58:33;;;;;;;4.70;4.10;;;;;;;17.74;88.22;99231.45;104176;274;38434;-77
2023/08/02 02:01:07;;;;;;;4.80;3.50;;;;;;;17.69;88.07;99232.70;104220;274;38416;-76
2023/08/02 02:03:46;;;;;;;4.40;3.80;;;;;;;17.67;88.48;99229.34;104210;274;38533;-76
2023/08/02 02:06:19;;;;;;;4.60;3.70;;;;;;;17.68;88.43;99232.83;104209;274;39971;-75
2023/08/02 02:08:57;;;;;;;7.20;3.80;;;;;;;17.67;88.44;99233.92;104212;274;38526;-74
2023/08/02 02:11:33;;;;;;;4.40;3.50;;;;;;;17.66;88.41;99239.69;104246;274;39680;-75
2023/08/02 02:14:10;;;;;;;4.00;3.50;;;;;;;17.63;88.39;99245.24;104084;274;174975;-77
2023/08/02 02:16:46;;;;;;;4.20;3.70;;;;;;;17.63;88.42;99247.38;104224;274;38536;-77
2023/08/02 02:19:23;;;;;;;5.80;3.90;;;;;;;17.59;88.23;99243.67;104180;274;38551;-77
2023/08/02 02:21:57;;;;;;;5.50;3.70;;;;;;;17.54;88.26;99245.77;104196;274;39661;-74
2023/08/02 02:24:31;;;;;;;4.20;3.70;;;;;;;17.50;88.15;99247.70;104185;274;38858;-75
2023/08/02 02:27:06;;;;;;;4.50;4.00;;;;;;;17.48;88.25;99247.71;104203;274;38393;-75
2023/08/02 02:29:44;;;;;;;5.10;4.10;;;;;;;17.47;88.37;99237.89;104184;274;38255;-74
2023/08/02 02:32:18;;;;;;;4.30;3.70;;;;;;;17.40;87.96;99240.48;104025;274;38565;-76
2023/08/02 02:34:53;;;;;;;6.10;3.80;;;;;;;17.30;87.74;99239.02;104089;274;175044;-75
2023/08/02 02:37:27;;;;;;;4.00;3.60;;;;;;;17.22;87.96;99237.61;104234;274;39417;-75
2023/08/02 02:40:01;;;;;;;4.20;3.90;;;;;;;17.16;88.13;99239.36;104236;274;39916;-75
2023/08/02 02:42:38;;;;;;;6.20;3.60;;;;;;;17.09;88.47;99238.30;104204;274;38277;-75
2023/08/02 02:45:15;;;;;;;7.00;4.10;;;;;;;17.06;88.66;99238.41;104065;274;39938;-75
2023/08/02 02:47:49;;;;;;;5.30;4.00;;;;;;;17.00;88.64;99237.27;104055;274;175039;-74
2023/08/02 02:50:23;;;;;;;4.10;3.70;;;;;;;16.96;88.85;99240.45;104198;274;39426;-75
2023/08/02 02:52:58;;;;;;;5.30;4.20;;;;;;;16.92;88.89;99241.14;104100;276;38803;-74
2023/08/02 02:55:32;;;;;;;5.50;3.90;;;;;;;16.86;88.90;99238.45;104193;274;38227;-77
2023/08/02 02:58:07;;;;;;;5.40;4.10;;;;;;;16.79;88.71;99242.56;104176;274;38273;-75
2023/08/02 03:00:41;;;;;;;4.90;4.20;;;;;;;16.73;88.83;99248.67;104120;274;38297;-75
2023/08/02 03:03:20;;;;;;;4.30;3.70;;;;;;;16.68;89.18;99253.61;104162;274;39387;-75
2023/08/02 03:06:02;;;;;;;7.20;4.40;;;;;;;16.64;89.41;99255.34;104118;274;39451;-74
2023/08/02 03:08:43;;;;;;;5.30;3.80;;;;;;;16.64;89.67;99253.28;104055;274;175030;-74
2023/08/02 03:11:20;;;;;;;5.70;3.80;;;;;;;16.61;89.73;99254.34;104174;274;38362;-75
2023/08/02 03:13:55;;;;;;;4.50;4.00;;;;;;;16.59;89.88;99258.79;104200;274;38352;-78
2023/08/02 03:16:29;;;;;;;4.80;4.00;;;;;;;16.58;90.02;99259.73;104218;274;38396;-75
2023/08/02 03:19:04;;;;;;;4.60;3.50;;;;;;;16.58;90.17;99259.76;104169;271;38806;-75
2023/08/02 03:21:40;;;;;;;4.00;3.60;;;;;;;16.56;90.27;99259.16;104162;274;38244;-76
2023/08/02 03:24:22;;;;;;;5.40;3.60;;;;;;;16.57;90.48;99256.45;103902;276;175025;-75
2023/08/02 03:27:01;;;;;;;5.60;3.90;;;;;;;16.58;90.74;99258.12;104151;274;40029;-75
2023/08/02 03:29:45;;;;;;;5.50;3.90;;;;;;;16.57;90.45;99259.27;104129;275;38394;-76
2023/08/02 03:32:20;;;;;;;5.60;3.50;;;;;;;16.57;90.26;99262.48;104134;275;38243;-74
2023/08/02 03:34:57;;;;;;;4.90;3.80;;;;;;;16.55;90.33;99264.40;104112;275;39672;-75
2023/08/02 03:37:31;;;;;;;5.10;3.70;;;;;;;16.56;90.66;99269.41;104131;275;39946;-75
2023/08/02 03:40:07;;;;;;;4.70;4.20;;;;;;;16.58;90.68;99266.95;104142;275;38257;-75
2023/08/02 03:42:45;;;;;;;6.00;3.90;;;;;;;16.61;90.68;99270.42;103058;276;1457777;-76
2023/08/02 03:45:20;;;;;;;5.80;4.00;;;;;;;16.61;90.45;99274.48;104208;275;39875;-75
2023/08/02 03:47:55;;;;;;;5.30;4.50;;;;;;;16.61;90.39;99275.84;104016;277;39463;-76
2023/08/02 03:50:30;;;;;;;8.50;4.00;;;;;;;16.61;90.48;99281.34;104180;275;38507;-76
2023/08/02 03:53:05;;;;;;;5.10;4.00;;;;;;;16.63;90.49;99280.98;104131;275;38398;-76
2023/08/02 03:55:40;;;;;;;6.30;4.00;;;;;;;16.95;92.55;99282.79;104172;275;38612;-75
2023/08/02 03:58:14;;;;;;;4.70;3.90;;;;;;;17.48;93.46;99279.05;104123;275;39088;-77
2023/08/02 04:00:52;;;;;;;5.20;4.10;;;;;;;18.11;93.73;99276.08;104189;275;38243;-77
2023/08/02 04:03:27;;;;;;;5.60;3.90;;;;;;;18.98;96.90;99276.50;104118;275;38211;-77
2023/08/02 04:06:01;;;;;;;4.90;3.80;;;;;;;19.77;93.58;99277.02;104039;275;174911;-75
2023/08/02 04:08:35;;;;;;;5.00;4.00;;;;;;;19.91;88.07;99279.75;104122;275;39412;-75
2023/08/02 04:11:12;;;;;;;4.80;3.80;;;;;;;19.77;85.84;99285.41;104119;276;38240;-77
2023/08/02 04:13:46;;;;;;;4.60;4.00;;;;;;;19.54;84.31;99290.13;104132;275;38056;-77
2023/08/02 04:16:22;;;;;;;6.50;3.90;;;;;;;19.38;83.58;99291.57;104142;275;39405;-75
2023/08/02 04:19:03;;;;;;;5.10;4.60;;;;;;;19.29;83.27;99293.98;103998;276;38867;-75
2023/08/02 04:21:39;;;;;;;6.70;3.60;;;;;;;19.13;82.92;99288.89;104129;275;38584;-75
2023/08/02 04:24:13;;;;;;;4.80;3.70;;;;;;;18.98;83.08;99287.10;104081;276;41038;-77
2023/08/02 04:26:48;;;;;;;5.20;3.90;;;;;;;18.86;83.18;99287.86;104175;275;40760;-77
2023/08/02 04:29:21;;;;;;;4.70;3.70;;;;;;;18.77;83.47;99290.40;104132;275;39811;-77
2023/08/02 04:31:59;;;;;;;4.40;4.00;;;;;;;18.73;83.59;99291.67;104170;275;38268;-77
2023/08/02 04:34:35;;;;;;;4.70;3.60;;;;;;;18.70;83.38;99295.98;104190;275;39837;-77
2023/08/02 04:37:11;;;;;;;4.90;3.80;;;;;;;18.65;83.34;99294.61;104170;275;38444;-75
2023/08/02 04:39:48;;;;;;;5.30;3.90;;;;;;;18.60;83.50;99297.41;104157;275;39671;-75
2023/08/02 04:42:22;;;;;;;5.30;3.90;;;;;;;18.59;83.96;99299.22;104143;275;38378;-76
2023/08/02 04:45:00;;;;;;;5.90;3.60;;;;;;;18.69;84.24;99302.02;104185;275;38349;-75
2023/08/02 04:47:35;;;;;;;7.00;3.80;;;;;;;18.75;84.00;99303.97;104156;275;38216;-75
2023/08/02 04:50:13;;;;;;;4.40;3.70;;;;;;;18.78;83.98;99306.61;104196;275;38378;-75
2023/08/02 04:52:48;;;;;;;4.90;3.80;;;;;;;18.78;83.91;99307.84;104156;274;38690;-75
2023/08/02 04:55:28;;;;;;;4.40;3.70;;;;;;;18.81;84.02;99307.22;104092;274;38225;-76
2023/08/02 04:58:02;;;;;;;4.40;3.40;;;;;;;18.99;84.28;99311.28;104148;274;38376;-76
2023/08/02 05:00:35;;;;;;;6.30;3.60;;;;;;;19.23;84.06;99314.89;104215;274;39713;-77
2023/08/02 05:03:12;;;;;;;3.70;3.40;;;;;;;19.45;84.43;99314.30;104138;274;39398;-77
2023/08/02 05:05:49;;;;;;;4.60;3.30;;;;;;;19.85;84.15;99319.10;104203;274;38238;-76
2023/08/02 05:08:23;;;;;;;3.70;3.10;;;;;;;20.36;83.13;99319.42;104202;274;38712;-77
2023/08/02 05:10:57;;;;;;;4.20;3.50;;;;;;;21.23;84.04;99319.13;104194;274;38857;-76
2023/08/02 05:13:32;;;;;;;3.70;3.00;;;;;;;22.41;81.11;99316.94;104055;274;174398;-76
2023/08/02 05:16:11;;;;;;;4.00;3.30;;;;;;;23.23;75.03;99313.65;104112;274;173041;-75
2023/08/02 05:18:45;;;;;;;3.90;3.40;;;;;;;24.05;72.27;99309.60;104154;274;39405;-76
2023/08/02 05:21:23;;;;;;;5.60;3.60;;;;;;;24.77;68.44;99312.44;104201;274;38394;-77
2023/08/02 05:23:57;;;;;;;4.20;2.70;;;;;;;25.05;65.60;99315.96;104159;274;38683;-77
2023/08/02 05:26:31;;;;;;;3.70;2.90;;;;;;;25.39;63.68;99315.20;104198;274;39635;-77
2023/08/02 05:29:07;;;;;;;4.30;2.90;;;;;;;25.61;62.41;99313.73;104175;274;39446;-76
2023/08/02 05:31:41;;;;;;;5.90;3.10;;;;;;;25.72;61.38;99315.45;104216;274;38231;-76
2023/08/02 05:34:15;;;;;;;4.80;2.90;;;;;;;25.72;59.83;99319.56;104072;274;38572;-76
2023/08/02 05:36:51;;;;;;;3.60;3.10;;;;;;;25.68;59.30;99317.35;104210;276;38263;-76
2023/08/02 05:39:26;;;;;;;3.70;3.20;;;;;;;25.76;58.84;99315.36;104140;274;38822;-76
2023/08/02 05:42:01;;;;;;;4.70;2.90;;;;;;;26.13;58.15;99320.76;104282;274;38427;-77
2023/08/02 05:44:41;;;;;;;3.20;2.80;;;;;;;26.88;57.78;99316.35;104142;274;38436;-76
2023/08/02 05:47:21;;;;;;;3.50;2.70;;;;;;;27.53;55.69;99322.59;104179;274;39436;-77
2023/08/02 05:49:57;;;;;;;3.40;3.10;;;;;;;28.03;53.89;99326.52;104187;274;38243;-77
2023/08/02 05:52:31;;;;;;;3.50;2.70;;;;;;;27.76;51.97;99327.27;104233;274;38741;-77
2023/08/02 05:55:07;;;;;;;4.50;2.80;;;;;;;27.42;52.19;99326.49;103958;276;188056;-76
2023/08/02 05:57:45;;;;;;;4.50;2.90;;;;;;;27.19;52.98;99326.08;104208;274;38243;-76
2023/08/02 06:00:23;;;;;;;4.30;3.10;;;;;;;27.52;52.83;99331.30;104203;274;38238;-76
2023/08/02 06:02:59;;;;;;;4.60;3.00;;;;;;;28.16;51.85;99325.66;104181;274;38729;-76
2023/08/02 06:05:35;;;;;;;4.40;2.70;;;;;;;28.93;50.84;99328.48;104228;274;38392;-77
2023/08/02 06:08:17;;;;;;;3.30;2.90;;;;;;;29.09;49.19;99330.70;104173;274;39388;-77
2023/08/02 06:10:54;;;;;;;4.30;2.70;;;;;;;28.75;48.23;99338.30;104215;274;38242;-77
2023/08/02 06:13:30;;;;;;;4.20;2.70;;;;;;;28.40;48.42;99340.55;104049;275;38803;-77
2023/08/02 06:16:07;;;;;;;4.40;3.20;;;;;;;27.88;48.88;99343.05;104108;274;189121;-76
2023/08/02 06:18:45;;;;;;;4.30;3.20;;;;;;;27.45;49.84;99342.20;104222;274;39431;-76
2023/08/02 06:21:23;;;;;;;4.00;3.30;;;;;;;27.22;49.59;99347.24;104073;275;40245;-75
2023/08/02 06:23:58;;;;;;;5.80;3.30;;;;;;;26.94;50.47;99347.08;104183;274;39533;-75
2023/08/02 06:26:32;;;;;;;4.70;2.90;;;;;;;27.13;50.95;99347.40;104216;274;38476;-76
2023/08/02 06:29:11;;;;;;;4.40;3.20;;;;;;;27.66;51.04;99348.77;104039;276;38371;-76
2023/08/02 06:31:45;;;;;;;5.40;3.40;;;;;;;28.51;50.02;99349.69;104238;263;39699;-76
2023/08/02 06:34:19;;;;;;;3.70;2.90;;;;;;;29.29;47.62;99353.04;104177;274;38311;-76
2023/08/02 06:36:53;;;;;;;3.60;2.60;;;;;;;30.16;45.83;99352.03;104222;274;39412;-76
2023/08/02 06:39:28;;;;;;;3.00;2.70;;;;;;;30.76;43.81;99350.31;104170;274;38378;-75
2023/08/02 06:42:02;;;;;;;3.90;2.80;;;;;;;31.45;42.33;99350.41;104176;274;38392;-76
2023/08/02 06:44:43;;;;;;;2.90;2.60;;;;;;;31.88;41.98;99350.02;104181;263;38546;-77
2023/08/02 06:47:17;;;;;;;3.20;2.90;;;;;;;32.18;40.34;99346.95;104035;274;38267;-77
2023/08/02 06:49:55;;;;;;;4.10;2.40;;;;;;;32.45;39.05;99358.74;104194;274;39649;-77
2023/08/02 06:52:31;;;;;;;3.60;2.90;;;;;;;32.63;38.43;99359.98;104177;274;38628;-77
2023/08/02 06:55:07;;;;;;;3.70;2.40;;;;;;;32.49;38.34;99368.14;104167;274;38374;-77
2023/08/02 06:57:45;;;;;;;3.00;2.60;;;;;;;31.94;38.04;99368.85;104012;275;38456;-77
2023/08/02 07:00:21;;;;;;;4.10;2.50;;;;;;;31.46;38.65;99370.33;104169;274;38364;-76
2023/08/02 07:02:55;;;;;;;2.90;2.40;;;;;;;31.23;39.35;99365.59;104140;274;38251;-77
2023/08/02 07:05:29;;;;;;;4.20;2.40;;;;;;;31.03;40.50;99367.84;104176;274;38236;-77
2023/08/02 07:08:07;;;;;;;6.50;2.80;;;;;;;30.62;40.19;99370.48;104067;276;38278;-77
2023/08/02 07:10:41;;;;;;;2.80;2.40;;;;;;;30.40;40.59;99373.61;104075;276;38307;-77
2023/08/02 07:13:16;;;;;;;4.20;2.30;;;;;;;30.36;40.65;99375.72;104141;274;38207;-77
2023/08/02 07:15:53;;;;;;;3.30;2.30;;;;;;;30.28;41.01;99379.56;104138;274;38996;-77
2023/08/02 07:18:27;;;;;;;4.40;1.90;;;;;;;30.03;41.14;99381.85;104249;274;38805;-78
2023/08/02 07:21:07;;;;;;;2.70;1.90;;;;;;;29.75;41.38;99380.55;104302;274;38237;-78
2023/08/02 07:23:41;;;;;;;3.70;1.90;;;;;;;29.97;41.40;99382.25;104348;274;39879;-78
2023/08/02 07:26:22;;;;;;;3.20;2.10;;;;;;;30.44;41.37;99376.70;104338;276;38525;-77
2023/08/02 07:28:56;;;;;;;2.40;2.10;;;;;;;30.60;40.35;99376.38;104184;274;38363;-76
2023/08/02 07:31:36;;;;;;;2.20;1.80;;;;;;;30.48;40.15;99372.09;103526;274;887193;-76
2023/08/02 07:34:13;;;;;;;4.50;2.30;;;;;;;30.32;39.98;99373.44;104059;274;38498;-76
2023/08/02 07:36:50;;;;;;;3.60;1.90;;;;;;;29.94;40.85;99378.94;104100;274;38266;-76
2023/08/02 07:39:27;;;;;;;2.30;1.70;;;;;;;29.45;41.03;99380.04;104196;274;38709;-76
2023/08/02 07:42:04;;;;;;;3.50;1.60;;;;;;;28.80;41.67;99383.83;104190;275;39663;-76
2023/08/02 07:44:42;;;;;;;4.50;1.80;;;;;;;28.17;42.33;99385.84;104205;275;38239;-76
2023/08/02 07:47:16;;;;;;;8.60;2.20;;;;;;;27.74;43.19;99390.06;104066;275;39193;-76
2023/08/02 07:49:55;;;;;;;5.10;3.00;;;;;;;27.39;45.07;99386.64;104260;263;39428;-78
2023/08/02 07:52:31;;;;;;;3.10;2.10;;;;;;;27.85;45.06;99387.81;104205;275;38268;-76
2023/08/02 07:55:09;;;;;;;2.80;2.00;;;;;;;27.75;44.89;99388.10;104093;275;39675;-77
2023/08/02 07:57:43;;;;;;;2.50;2.00;;;;;;;27.71;44.58;99393.27;104181;275;39625;-77
2023/08/02 08:00:22;;;;;;;2.90;1.80;;;;;;;27.48;44.68;99392.90;104194;274;39920;-78
2023/08/02 08:03:03;;;;;;;2.30;1.90;;;;;;;27.35;45.23;99394.55;104186;275;39163;-78
2023/08/02 08:05:39;;;;;;;2.90;2.20;;;;;;;27.13;45.53;99394.69;104209;274;38483;-78
2023/08/02 08:08:13;;;;;;;3.60;2.10;;;;;;;27.07;46.78;99393.96;104135;274;38705;-78
2023/08/02 08:10:54;;;;;;;2.10;1.90;;;;;;;27.86;47.37;99389.38;104076;275;38269;-78
2023/08/02 08:13:28;;;;;;;3.80;2.10;;;;;;;28.90;45.09;99389.34;104163;275;39691;-79
2023/08/02 08:16:03;;;;;;;3.60;2.30;;;;;;;29.82;43.64;99392.40;104070;276;38972;-78
2023/08/02 08:18:40;;;;;;;3.90;1.90;;;;;;;30.62;41.80;99395.19;104146;275;38619;-77
2023/08/02 08:21:15;;;;;;;3.00;1.90;;;;;;;31.37;40.78;99394.73;104059;275;38450;-76
2023/08/02 08:23:49;;;;;;;3.80;1.60;;;;;;;31.92;39.20;99390.86;104122;274;38413;-76
2023/08/02 08:26:23;;;;;;;2.30;2.00;;;;;;;32.41;38.37;99389.00;104220;275;38705;-76
2023/08/02 08:28:58;;;;;;;2.60;1.50;;;;;;;32.99;37.08;99396.42;104124;274;39584;-75
2023/08/02 08:31:35;;;;;;;4.10;1.80;;;;;;;33.27;36.14;99393.27;104195;274;38731;-76
2023/08/02 08:34:13;;;;;;;4.70;2.00;;;;;;;33.35;36.03;99395.05;104228;274;38467;-77
2023/08/02 08:36:48;;;;;;;2.30;2.10;;;;;;;33.80;35.94;99393.31;104240;274;38516;-76
2023/08/02 08:39:23;;;;;;;1.90;1.60;;;;;;;34.21;34.27;99395.30;104178;274;38494;-77
2023/08/02 08:41:57;;;;;;;1.70;1.40;;;;;;;34.16;33.75;99398.45;104059;276;39868;-76
2023/08/02 08:44:33;;;;;;;1.60;1.40;;;;;;;34.15;33.68;99399.95;104160;274;38461;-76
2023/08/02 08:47:09;;;;;;;2.90;2.10;;;;;;;34.53;33.76;99397.89;104187;274;38233;-75
2023/08/02 08:49:49;;;;;;;3.30;1.70;;;;;;;34.50;32.47;99403.90;104161;274;38355;-76
2023/08/02 08:52:23;;;;;;;3.50;2.00;;;;;;;33.57;32.56;99406.42;104146;274;38560;-74
2023/08/02 08:54:58;;;;;;;2.20;1.90;;;;;;;32.61;33.50;99414.73;104147;274;38236;-75
2023/08/02 08:57:32;;;;;;;3.20;2.20;;;;;;;31.76;34.80;99418.92;104179;274;38396;-76
2023/08/02 09:00:14;;;;;;;3.00;1.90;;;;;;;31.68;36.55;99424.23;104252;274;38383;-77
2023/08/02 09:02:48;;;;;;;1.90;1.70;;;;;;;32.07;36.54;99412.88;103556;274;886443;-76
2023/08/02 09:05:31;;;;;;;3.60;1.60;;;;;;;32.47;35.80;99412.96;104081;274;174933;-76
2023/08/02 09:08:10;;;;;;;5.70;1.80;;;;;;;32.20;34.96;99413.65;104160;274;38875;-76
2023/08/02 09:10:47;;;;;;;2.10;1.40;;;;;;;32.46;35.58;99415.67;104192;274;38891;-76
2023/08/02 09:13:28;;;;;;;2.10;1.60;;;;;;;32.84;34.93;99414.32;104019;276;38232;-76
2023/08/02 09:16:13;;;;;;;1.80;1.20;;;;;;;33.22;33.83;99409.11;104161;274;38791;-76
2023/08/02 09:18:48;;;;;;;2.40;1.40;;;;;;;33.03;33.12;99414.42;104192;274;38453;-76
2023/08/02 09:21:28;;;;;;;2.30;1.20;;;;;;;32.28;33.44;99413.38;104202;274;38658;-76
2023/08/02 09:24:04;;;;;;;3.50;1.30;;;;;;;32.09;34.69;99408.78;104178;274;39474;-76
2023/08/02 09:26:38;;;;;;;3.00;1.40;;;;;;;32.24;35.00;99408.98;104167;274;38497;-74
2023/08/02 09:29:13;;;;;;;1.60;1.10;;;;;;;32.45;34.19;99410.52;104140;274;38409;-74
2023/08/02 09:31:52;;;;;;;1.50;1.00;;;;;;;32.17;33.59;99411.79;104135;274;38978;-77
2023/08/02 09:34:32;;;;;;;1.30;1.10;;;;;;;31.66;34.61;99409.92;104190;274;39530;-77
2023/08/02 09:37:12;;;;;;;2.70;1.40;;;;;;;31.14;35.02;99402.88;104226;274;38690;-76
2023/08/02 09:39:53;;;;;;;1.60;0.90;;;;;;;30.61;35.53;99401.48;104195;274;38219;-76
2023/08/02 09:42:29;;;;;;;1.70;1.00;;;;;;;30.29;36.54;99402.98;104182;274;38759;-75
2023/08/02 09:45:08;;;;;;;2.90;1.30;;;;;;;30.17;36.73;99404.45;104240;274;38225;-75
2023/08/02 09:47:51;;;;;;;1.50;0.90;;;;;;;29.94;36.36;99405.00;104192;274;38981;-77
2023/08/02 09:50:25;;;;;;;2.80;0.90;;;;;;;29.86;38.05;99401.72;104187;274;40299;-76
2023/08/02 09:52:59;;;;;;;1.30;1.00;;;;;;;29.95;37.24;99399.69;104170;274;39456;-76
2023/08/02 09:55:33;;;;;;;1.30;1.00;;;;;;;30.10;37.46;99400.52;104207;274;39862;-76
2023/08/02 09:58:14;;;;;;;2.50;0.90;;;;;;;30.19;36.70;99397.01;104047;276;39419;-76
2023/08/02 10:00:52;;;;;;;1.30;1.00;;;;;;;30.21;37.17;99395.39;104193;274;38237;-76
2023/08/02 10:03:28;;;;;;;3.00;1.20;;;;;;;30.20;36.90;99395.89;104170;274;38276;-75
2023/08/02 10:06:11;;;;;;;2.40;0.90;;;;;;;30.16;36.30;99399.21;104238;274;38224;-75
2023/08/02 10:08:48;;;;;;;1.70;0.90;;;;;;;30.07;36.47;99394.95;104162;274;38263;-76
2023/08/02 10:11:27;;;;;;;2.00;0.90;;;;;;;30.04;36.59;99389.52;104199;274;39082;-74
2023/08/02 10:14:01;;;;;;;1.10;0.80;;;;;;;29.97;36.75;99394.45;104195;274;38230;-76
2023/08/02 10:16:35;;;;;;;2.30;1.00;;;;;;;29.86;36.65;99385.65;104162;274;38571;-76
2023/08/02 10:19:13;;;;;;;2.90;1.00;;;;;;;29.82;37.09;99373.75;104159;274;38321;-77
2023/08/02 10:21:51;;;;;;;1.20;0.90;;;;;;;29.76;37.19;99375.70;104164;274;38376;-76
2023/08/02 10:24:29;;;;;;;2.00;0.90;;;;;;;29.58;36.74;99376.93;104075;274;171817;-76
2023/08/02 10:27:09;;;;;;;2.30;1.00;;;;;;;29.36;36.66;99381.25;104186;274;39003;-76
2023/08/02 10:29:48;;;;;;;2.90;1.30;;;;;;;29.08;36.66;99376.91;104150;274;38598;-76
2023/08/02 10:32:23;;;;;;;2.30;1.20;;;;;;;28.86;36.68;99375.34;104032;276;39956;-76
2023/08/02 10:34:59;;;;;;;3.00;0.90;;;;;;;28.73;36.89;99371.92;104172;274;38230;-76
2023/08/02 10:37:58;;;;;;;6.60;1.50;;;;;;;28.47;37.18;99371.38;104144;274;38313;-76
2023/08/02 10:40:32;;;;;;;2.00;1.10;;;;;;;28.52;38.63;99368.63;104179;274;38806;-76
2023/08/02 10:43:13;;;;;;;3.00;1.20;;;;;;;28.54;38.15;99363.54;104146;274;39675;-76
2023/08/02 10:45:48;;;;;;;1.80;0.90;;;;;;;28.47;37.79;99356.67;104178;274;38431;-75
2023/08/02 10:48:31;;;;;;;2.00;1.10;;;;;;;28.49;37.99;99349.40;104151;274;38315;-73
2023/08/02 10:51:05;;;;;;;1.70;0.90;;;;;;;28.65;37.93;99345.88;104186;274;38471;-75
2023/08/02 10:53:39;;;;;;;2.70;1.10;;;;;;;28.82;38.53;99342.77;104173;274;40002;-75
2023/08/02 10:56:16;;;;;;;1.30;1.00;;;;;;;28.97;37.41;99340.23;104173;274;39686;-75
2023/08/02 10:58:56;;;;;;;2.00;1.20;;;;;;;29.07;37.35;99337.36;104164;274;38709;-75
2023/08/02 11:01:31;;;;;;;2.80;1.20;;;;;;;29.14;37.31;99332.70;104189;274;38675;-75
2023/08/02 11:04:10;;;;;;;1.80;1.10;;;;;;;29.14;36.79;99330.08;104173;274;38390;-76
2023/08/02 11:06:44;;;;;;;1.80;1.00;;;;;;;29.09;36.10;99330.29;104122;274;38912;-74
2023/08/02 11:09:18;;;;;;;4.00;1.10;;;;;;;28.98;35.95;99331.04;104178;274;38860;-74
2023/08/02 11:11:52;;;;;;;2.80;1.00;;;;;;;28.96;35.80;99328.02;104212;274;39574;-74
2023/08/02 11:14:32;;;;;;;3.00;0.90;;;;;;;28.92;35.57;99321.35;104141;274;39161;-74
2023/08/02 11:17:07;;;;;;;1.30;1.10;;;;;;;28.91;35.77;99318.66;104173;274;38369;-74
2023/08/02 11:19:52;;;;;;;2.30;1.10;;;;;;;28.94;36.57;99318.95;104023;275;39633;-74
2023/08/02 11:22:36;;;;;;;3.50;1.20;;;;;;;29.02;36.61;99321.69;104153;274;38395;-75
2023/08/02 11:25:20;;;;;;;2.30;1.40;;;;;;;29.07;36.40;99324.65;104159;274;38465;-75
2023/08/02 11:28:06;;;;;;;1.40;1.10;;;;;;;28.93;36.72;99322.27;104141;274;38268;-75
2023/08/02 11:30:42;;;;;;;4.20;1.20;;;;;;;28.91;36.77;99324.55;104106;276;39132;-75
2023/08/02 11:33:19;;;;;;;2.10;1.10;;;;;;;28.96;36.71;99319.19;104019;275;38260;-75
2023/08/02 11:36:05;;;;;;;2.30;1.20;;;;;;;28.93;36.81;99321.10;104225;275;38263;-74
2023/08/02 11:38:41;;;;;;;1.60;1.30;;;;;;;28.71;36.71;99321.00;104182;274;38455;-72
2023/08/02 11:41:34;;;;;;;3.60;1.20;;;;;;;28.55;36.60;99319.17;104219;275;38481;-76
2023/08/02 11:44:26;;;;;;;2.40;1.20;;;;;;;28.39;36.95;99320.24;103752;263;526663;-76
2023/08/02 11:47:04;;;;;;;1.60;1.30;;;;;;;28.32;37.08;99311.32;104066;275;38372;-74
2023/08/02 11:49:57;;;;;;;1.20;1.00;;;;;;;28.34;37.87;99310.98;104150;274;39395;-75
2023/08/02 11:52:35;;;;;;;2.50;1.70;;;;;;;28.29;37.55;99313.08;104123;274;39382;-76
2023/08/02 11:55:15;;;;;;;2.50;1.40;;;;;;;28.16;37.32;99319.08;103966;275;187951;-76
2023/08/02 11:57:54;;;;;;;3.90;1.20;;;;;;;28.12;37.95;99309.91;104169;275;38228;-75
2023/08/02 12:00:31;;;;;;;2.50;1.10;;;;;;;28.24;38.27;99305.11;104158;275;38547;-76
2023/08/02 12:03:15;;;;;;;2.40;1.30;;;;;;;28.22;37.91;99306.80;104210;274;38497;-76
2023/08/02 12:05:51;;;;;;;2.40;1.20;;;;;;;28.08;37.85;99306.50;104177;274;38996;-75
2023/08/02 12:08:26;;;;;;;3.30;1.20;;;;;;;27.98;38.36;99308.46;104148;274;38292;-75
2023/08/02 12:11:02;;;;;;;1.70;1.10;;;;;;;28.01;38.85;99305.04;104060;274;38250;-76
2023/08/02 12:13:36;;;;;;;1.50;1.10;;;;;;;27.94;37.80;99301.48;104148;274;38923;-76
2023/08/02 12:16:13;;;;;;;1.70;1.10;;;;;;;27.79;37.35;99310.25;104158;274;38216;-76
2023/08/02 12:18:57;;;;;;;2.90;1.30;;;;;;;27.59;38.26;99309.08;104127;274;38688;-75